Terminal Aerodrome Forecast
Issued by NWS Sioux Falls, SD

Home | Current Version | Previous Version | Graphics & Text | Print | Product List | Glossary Off
Versions: 1 2 3 4 5 6 7 8 9 10 11 12 13 14 15 16

000
FTUS43 KFSD 242320
TAFFSD
TAF
KFSD 242320Z 2500/2524 15013G19KT P6SM FEW120
     FM250900 16013G19KT P6SM SCT150 WS015/19040KT
     FM251300 17014G21KT P6SM FEW110
     FM251900 20015G23KT P6SM SKC=

USA.gov is the U.S. government's official web portal to all federal, state and local government web resources and services.